< < Back
Terminal Aerodrome Forecast


Current Version              Previous Versions:   1  2  3  4  5  6  7  8  9  

Terminal Aerodrome Forecast

092
FTUS44 KBMX 270524 CCA
TAFTCL
TAF COR
KTCL 270524Z 2706/2806 14004KT 5SM BR BKN007 BKN012
     FM271000 00000KT 3SM BR BKN004
     FM271500 16007KT P6SM SCT025 BKN110
     FM271900 17007KT P6SM VCTS BKN040CB
     FM280100 VRB03KT P6SM BKN120=

Latest METAR

877
SAUS70 KWBC 270600 RRL
MTRTCL
METAR KTCL 270553Z AUTO 17005KT 9SM OVC006 22/21 A3015 RMK AO2 SLP205
T02220206 10256 20222 402610206 58001


USA.gov is the U.S. government's official web portal to all federal, state and local government web resources and services.